Time;durP1;ratioP1;P1;durP2;ratioP2;P2;SDS_P1;SDS_P2;PMS_P1;PMS_P2;Temp;Humidity;BMP_temperature;BMP_pressure;BME280_temperature;BME280_humidity;BME280_pressure;Samples;Min_cycle;Max_cycle;Signal;HPM_P1;HPM_P2
2022/12/04 00:00:39;;;;;;;18.90;11.70;;;7.30;61.40;;;;;;5037707;28;20642;-57
2022/12/04 00:03:05;;;;;;;17.63;11.20;;;7.50;60.90;;;;;;5034823;28;20196;-57
2022/12/04 00:05:31;;;;;;;17.83;12.10;;;7.40;61.30;;;;;;5046633;28;20685;-57
2022/12/04 00:07:56;;;;;;;17.63;12.20;;;7.40;61.30;;;;;;5039470;28;20197;-57
2022/12/04 00:10:22;;;;;;;19.57;11.40;;;7.60;60.80;;;;;;5038881;28;20204;-57
2022/12/04 00:12:47;;;;;;;18.73;11.33;;;7.70;60.20;;;;;;5036374;28;20576;-57
2022/12/04 00:15:14;;;;;;;18.43;11.83;;;7.80;59.90;;;;;;5036852;28;20273;-57
2022/12/04 00:17:39;;;;;;;21.00;12.50;;;8.00;59.50;;;;;;5034262;28;20196;-57
2022/12/04 00:20:06;;;;;;;20.50;11.87;;;7.90;59.10;;;;;;5040278;28;20436;-57
2022/12/04 00:22:32;;;;;;;19.50;12.17;;;7.90;59.60;;;;;;5034850;28;20251;-57
2022/12/04 00:24:58;;;;;;;17.60;11.53;;;7.80;59.50;;;;;;5039578;28;20490;-57
2022/12/04 00:27:23;;;;;;;21.00;13.30;;;7.70;59.70;;;;;;5039953;28;20449;-57
2022/12/04 00:29:49;;;;;;;18.37;12.00;;;7.50;60.00;;;;;;5037137;28;20283;-57
2022/12/04 00:32:14;;;;;;;19.57;11.70;;;7.50;60.80;;;;;;5034228;28;20201;-57
2022/12/04 00:34:40;;;;;;;19.20;11.47;;;7.60;60.70;;;;;;5036289;28;20267;-58
2022/12/04 00:37:05;;;;;;;19.50;12.00;;;7.80;60.20;;;;;;5042163;28;20203;-57
2022/12/04 00:39:31;;;;;;;19.03;11.13;;;7.90;59.60;;;;;;5045401;28;20704;-56
2022/12/04 00:41:57;;;;;;;19.33;11.10;;;8.00;59.30;;;;;;5040047;28;20196;-57
2022/12/04 00:44:22;;;;;;;20.07;12.50;;;8.10;59.10;;;;;;5031376;28;20277;-57
2022/12/04 00:46:48;;;;;;;19.00;13.20;;;8.20;59.20;;;;;;5033498;28;20829;-57
2022/12/04 00:49:13;;;;;;;20.30;12.63;;;8.10;59.10;;;;;;5035027;28;20193;-56
2022/12/04 00:51:39;;;;;;;17.47;11.60;;;8.20;59.30;;;;;;5036470;28;20184;-58
2022/12/04 00:54:04;;;;;;;18.40;11.77;;;8.00;59.40;;;;;;5041342;28;20192;-57
2022/12/04 00:56:30;;;;;;;19.87;12.43;;;8.00;59.50;;;;;;5042374;28;20212;-58
2022/12/04 00:58:58;;;;;;;20.47;12.23;;;8.10;59.50;;;;;;5034477;28;20572;-57
2022/12/04 01:01:24;;;;;;;21.37;12.37;;;8.20;59.30;;;;;;5029208;28;20181;-57
2022/12/04 01:03:50;;;;;;;19.63;12.03;;;8.20;59.10;;;;;;5037056;28;20581;-57
2022/12/04 01:06:23;;;;;;;20.13;13.53;;;8.20;59.10;;;;;;5050803;28;20438;-57
2022/12/04 01:08:49;;;;;;;18.20;11.00;;;8.00;59.10;;;;;;5034113;28;20444;-58
2022/12/04 01:11:16;;;;;;;22.63;13.03;;;8.10;59.40;;;;;;5031336;28;20447;-57
2022/12/04 01:13:41;;;;;;;18.93;11.93;;;8.10;59.30;;;;;;5031574;28;20440;-57
2022/12/04 01:16:07;;;;;;;18.20;11.37;;;8.10;59.50;;;;;;5037287;28;20805;-56
2022/12/04 01:18:33;;;;;;;22.20;12.70;;;8.00;59.70;;;;;;5031630;28;20204;-58
2022/12/04 01:20:59;;;;;;;26.53;13.63;;;8.00;60.00;;;;;;5031933;28;21036;-58
2022/12/04 01:23:24;;;;;;;19.13;12.60;;;8.10;59.70;;;;;;5036042;28;20248;-57
2022/12/04 01:25:56;;;;;;;21.70;13.03;;;7.80;59.80;;;;;;5048623;28;20212;-58
2022/12/04 01:28:22;;;;;;;21.47;12.10;;;7.70;60.40;;;;;;5036565;28;20450;-57
2022/12/04 01:31:05;;;;;;;21.27;12.50;;;7.80;60.80;;;;;;5042518;28;20431;-57
2022/12/04 01:33:33;;;;;;;17.37;12.50;;;7.80;60.80;;;;;;5037192;28;20862;-58
2022/12/04 01:36:00;;;;;;;22.80;14.00;;;7.80;60.50;;;;;;5036536;28;20447;-57
2022/12/04 01:38:26;;;;;;;19.63;12.60;;;7.70;60.90;;;;;;5030064;28;20569;-57
2022/12/04 01:40:52;;;;;;;21.97;12.50;;;7.60;61.20;;;;;;5031458;28;20458;-57
2022/12/04 01:43:18;;;;;;;18.20;11.97;;;7.80;61.00;;;;;;5030476;28;20822;-58
2022/12/04 01:45:50;;;;;;;22.93;14.37;;;7.90;60.40;;;;;;5031483;28;20197;-57
2022/12/04 01:48:41;;;;;;;24.93;14.00;;;8.00;60.30;;;;;;5031067;28;20440;-58
2022/12/04 01:51:19;;;;;;;22.33;13.40;;;7.90;60.50;;;;;;5028402;28;20481;-57
2022/12/04 01:53:58;;;;;;;20.70;14.33;;;7.60;61.20;;;;;;5028490;28;20451;-58
2022/12/04 01:56:31;;;;;;;23.97;15.30;;;7.40;61.40;;;;;;5036322;28;20443;-57
2022/12/04 01:59:00;;;;;;;23.40;13.60;;;7.30;62.40;;;;;;5039641;28;20846;-58
2022/12/04 02:01:30;;;;;;;18.93;13.10;;;7.20;62.70;;;;;;5037120;28;20516;-58
2022/12/04 02:03:57;;;;;;;17.23;12.43;;;7.40;62.80;;;;;;5031251;28;20952;-58
2022/12/04 02:06:23;;;;;;;23.33;14.33;;;7.00;63.50;;;;;;5030088;28;20826;-57
2022/12/04 02:08:48;;;;;;;23.53;15.27;;;6.80;64.40;;;;;;5035747;28;20527;-57
2022/12/04 02:11:23;;;;;;;21.80;14.40;;;6.60;64.30;;;;;;5037796;28;20190;-58
2022/12/04 02:14:06;;;;;;;23.00;14.00;;;6.70;65.20;;;;;;5031151;28;20267;-58
2022/12/04 02:16:45;;;;;;;23.33;14.70;;;7.10;64.30;;;;;;5029532;28;20447;-58
2022/12/04 02:19:29;;;;;;;24.43;14.40;;;7.30;63.30;;;;;;5035703;28;20435;-57
2022/12/04 02:21:58;;;;;;;17.97;12.40;;;7.40;62.20;;;;;;5029592;28;20533;-57
2022/12/04 02:24:41;;;;;;;20.60;13.70;;;7.40;62.20;;;;;;5028595;28;20491;-57
2022/12/04 02:27:38;;;;;;;20.40;14.23;;;7.60;62.10;;;;;;5036216;28;20452;-59
2022/12/04 02:30:13;;;;;;;25.40;14.20;;;7.50;62.10;;;;;;5026496;28;21073;-58
2022/12/04 02:32:38;;;;;;;21.90;14.37;;;7.50;62.20;;;;;;5036354;28;20810;-58
2022/12/04 02:35:12;;;;;;;19.83;13.17;;;7.60;61.60;;;;;;5036634;28;20458;-58
2022/12/04 02:37:42;;;;;;;22.50;12.60;;;7.70;61.30;;;;;;5032570;28;20224;-57
2022/12/04 02:40:24;;;;;;;20.67;13.10;;;7.40;61.80;;;;;;5031100;28;20447;-58
2022/12/04 02:43:04;;;;;;;21.20;14.30;;;7.50;62.40;;;;;;5031291;28;20450;-59
2022/12/04 02:45:36;;;;;;;21.20;13.27;;;7.60;61.70;;;;;;5041410;28;20490;-57
2022/12/04 02:48:06;;;;;;;22.63;13.40;;;7.70;61.60;;;;;;5050940;28;20466;-58
2022/12/04 02:50:35;;;;;;;20.63;13.43;;;7.60;61.70;;;;;;5050611;28;20557;-58
2022/12/04 02:53:12;;;;;;;19.57;13.17;;;7.60;61.80;;;;;;5048104;28;20435;-57
2022/12/04 02:55:44;;;;;;;22.40;14.50;;;7.60;62.00;;;;;;5042532;28;20439;-58
2022/12/04 02:58:19;;;;;;;24.53;15.80;;;7.70;61.70;;;;;;5043948;28;20764;-58
2022/12/04 03:00:47;;;;;;;17.97;13.00;;;7.90;61.40;;;;;;5048808;28;20450;-58
2022/12/04 03:03:20;;;;;;;19.90;12.90;;;7.90;60.30;;;;;;5049659;28;20534;-58
2022/12/04 03:05:55;;;;;;;22.37;14.40;;;7.60;60.80;;;;;;5041194;28;20589;-59
2022/12/04 03:08:25;;;;;;;20.27;13.10;;;7.50;61.90;;;;;;5045863;28;20422;-58
2022/12/04 03:10:55;;;;;;;20.83;14.00;;;7.70;61.80;;;;;;5048076;28;20947;-58
2022/12/04 03:13:35;;;;;;;24.90;13.30;;;7.90;61.00;;;;;;5046890;28;20442;-58
2022/12/04 03:16:11;;;;;;;20.40;14.30;;;8.00;60.40;;;;;;5050952;28;20503;-58
2022/12/04 03:18:47;;;;;;;18.73;12.60;;;8.20;60.10;;;;;;5050852;28;20500;-57
2022/12/04 03:21:25;;;;;;;21.97;13.90;;;8.30;59.50;;;;;;5042840;28;20447;-56
2022/12/04 03:24:16;;;;;;;18.43;13.10;;;8.30;59.40;;;;;;5046107;28;20499;-58
2022/12/04 03:26:49;;;;;;;20.70;11.87;;;8.40;59.20;;;;;;5047539;28;20456;-58
2022/12/04 03:29:27;;;;;;;22.10;14.73;;;8.50;58.90;;;;;;5052285;28;20874;-58
2022/12/04 03:32:00;;;;;;;20.90;13.47;;;8.60;58.60;;;;;;5037829;28;20447;-58
2022/12/04 03:34:41;;;;;;;19.10;13.37;;;8.60;58.50;;;;;;5051076;28;20443;-58
2022/12/04 03:37:14;;;;;;;21.30;14.70;;;8.60;58.30;;;;;;5055425;28;20474;-57
2022/12/04 03:39:57;;;;;;;20.03;14.10;;;8.70;58.30;;;;;;5050708;28;20427;-55
2022/12/04 03:42:51;;;;;;;23.60;15.20;;;8.60;58.60;;;;;;5051520;28;20431;-58
2022/12/04 03:45:27;;;;;;;20.10;13.13;;;8.50;58.70;;;;;;5051973;28;21027;-58
2022/12/04 03:48:00;;;;;;;18.07;13.07;;;8.50;58.90;;;;;;5041070;28;20834;-58
2022/12/04 03:50:37;;;;;;;21.10;14.70;;;8.50;58.80;;;;;;5045666;28;20486;-55
2022/12/04 03:53:09;;;;;;;22.10;14.57;;;8.30;59.00;;;;;;5032922;28;20444;-56
2022/12/04 03:55:42;;;;;;;19.47;13.27;;;8.30;59.20;;;;;;5040853;28;20439;-58
2022/12/04 03:58:13;;;;;;;21.70;13.47;;;8.30;59.20;;;;;;5034452;28;20918;-59
2022/12/04 04:00:43;;;;;;;19.87;13.80;;;8.30;59.10;;;;;;5051120;28;20787;-59
2022/12/04 04:03:21;;;;;;;18.97;12.50;;;8.30;59.00;;;;;;5037224;28;20471;-58
2022/12/04 04:05:52;;;;;;;19.60;13.53;;;8.30;59.10;;;;;;5046910;28;20554;-56
2022/12/04 04:08:25;;;;;;;23.27;14.43;;;8.30;59.00;;;;;;5038705;28;20469;-58
2022/12/04 04:10:58;;;;;;;22.37;14.87;;;8.10;59.20;;;;;;5034280;28;20443;-57
2022/12/04 04:24:44;;;;;;;21.30;13.83;;;7.70;60.60;;;;;;5041569;28;20498;-57
2022/12/04 04:27:10;;;;;;;19.27;12.37;;;7.60;61.30;;;;;;5033122;28;20667;-58
2022/12/04 04:29:37;;;;;;;18.40;12.93;;;7.70;61.40;;;;;;5042922;28;20577;-57
2022/12/04 04:32:13;;;;;;;20.90;13.17;;;7.80;60.80;;;;;;5036773;28;20219;-56
2022/12/04 04:35:03;;;;;;;22.00;13.10;;;7.80;60.70;;;;;;5035401;28;20527;-58
2022/12/04 04:38:02;;;;;;;19.33;12.97;;;8.00;59.90;;;;;;5034395;28;20543;-58
2022/12/04 04:40:39;;;;;;;18.90;13.17;;;8.00;60.20;;;;;;5034980;28;20475;-58
2022/12/04 04:43:24;;;;;;;23.37;14.43;;;8.10;60.00;;;;;;5037504;28;20810;-58
2022/12/04 04:46:01;;;;;;;20.43;11.83;;;8.30;59.60;;;;;;5032447;28;20466;-58
2022/12/04 04:48:31;;;;;;;19.40;11.87;;;8.40;59.20;;;;;;5031988;28;20443;-58
2022/12/04 04:51:00;;;;;;;21.47;13.80;;;8.20;59.20;;;;;;5035610;28;20450;-58
2022/12/04 04:53:33;;;;;;;17.83;13.03;;;8.10;59.30;;;;;;5033441;28;20806;-58
2022/12/04 04:55:59;;;;;;;22.73;13.60;;;8.00;59.70;;;;;;5042234;28;20442;-57
2022/12/04 04:58:25;;;;;;;18.27;13.43;;;8.00;60.00;;;;;;5045127;28;20526;-58
2022/12/04 05:00:53;;;;;;;19.33;13.03;;;8.00;60.10;;;;;;5035690;28;20550;-58
2022/12/04 05:03:19;;;;;;;20.60;12.07;;;8.10;60.00;;;;;;5030589;28;20272;-56
2022/12/04 05:05:44;;;;;;;21.17;14.17;;;8.00;59.80;;;;;;5045838;28;20530;-58
2022/12/04 05:08:10;;;;;;;19.37;13.00;;;8.00;59.90;;;;;;5038806;28;20189;-58
2022/12/04 05:10:35;;;;;;;18.60;12.63;;;8.30;59.70;;;;;;5031772;28;20188;-58
2022/12/04 05:13:01;;;;;;;19.87;12.87;;;8.30;59.90;;;;;;5036215;28;20570;-56
2022/12/04 05:15:27;;;;;;;17.83;12.90;;;8.30;59.40;;;;;;5038439;28;20203;-57
2022/12/04 05:17:52;;;;;;;20.97;14.07;;;8.40;59.30;;;;;;5029891;28;20196;-59
2022/12/04 05:20:18;;;;;;;17.43;12.37;;;8.50;59.00;;;;;;5032442;28;20232;-58
2022/12/04 05:22:43;;;;;;;20.43;12.27;;;8.50;59.00;;;;;;5038607;28;20233;-58
2022/12/04 05:25:09;;;;;;;17.13;11.37;;;8.40;59.30;;;;;;5040835;28;20220;-56
2022/12/04 05:27:35;;;;;;;17.50;12.40;;;8.40;59.40;;;;;;5033781;28;20189;-56
2022/12/04 05:30:00;;;;;;;19.70;13.87;;;8.40;59.30;;;;;;5035393;28;20200;-56
2022/12/04 05:32:28;;;;;;;19.70;12.00;;;8.40;59.20;;;;;;5044319;28;20271;-58
2022/12/04 05:34:55;;;;;;;18.53;11.93;;;8.30;59.50;;;;;;5048150;28;20580;-58
2022/12/04 05:37:22;;;;;;;19.03;12.40;;;8.40;59.50;;;;;;5034452;28;20478;-58
2022/12/04 05:39:47;;;;;;;17.57;11.60;;;8.40;59.30;;;;;;5030575;28;20467;-60
2022/12/04 05:42:14;;;;;;;18.87;12.50;;;8.40;59.40;;;;;;5033738;28;20481;-58
2022/12/04 05:44:39;;;;;;;17.17;11.47;;;8.00;59.70;;;;;;5030156;28;20397;-58
2022/12/04 05:47:05;;;;;;;18.23;12.33;;;8.00;60.40;;;;;;5034495;28;20480;-57
2022/12/04 05:49:33;;;;;;;19.20;11.67;;;8.10;60.20;;;;;;5030144;28;20196;-58
2022/12/04 05:51:59;;;;;;;18.00;12.10;;;8.30;59.80;;;;;;5030726;28;20849;-58
2022/12/04 05:54:25;;;;;;;16.67;11.17;;;8.50;59.50;;;;;;5032805;28;20439;-58
2022/12/04 05:56:51;;;;;;;17.37;11.70;;;8.50;59.00;;;;;;5034577;28;22100;-56
2022/12/04 05:59:17;;;;;;;19.40;12.87;;;8.60;58.80;;;;;;5031894;28;20258;-56
2022/12/04 06:01:43;;;;;;;16.30;12.37;;;8.70;58.80;;;;;;5036083;28;20239;-58
2022/12/04 06:04:09;;;;;;;20.53;13.50;;;8.70;59.30;;;;;;5036401;28;21489;-56
2022/12/04 06:06:35;;;;;;;21.63;13.67;;;8.60;58.90;;;;;;5043227;28;20470;-57
2022/12/04 06:09:01;;;;;;;18.23;12.73;;;8.70;58.80;;;;;;5038387;28;20497;-57
2022/12/04 06:11:30;;;;;;;19.37;12.73;;;8.60;58.90;;;;;;5036077;28;20454;-57
2022/12/04 06:13:57;;;;;;;23.90;13.23;;;8.60;58.90;;;;;;5042198;28;20656;-59
2022/12/04 06:16:29;;;;;;;19.67;12.93;;;8.70;59.00;;;;;;5050182;28;20434;-58
2022/12/04 06:19:00;;;;;;;20.73;12.93;;;8.70;58.90;;;;;;5038059;28;20576;-58
2022/12/04 06:21:28;;;;;;;23.27;13.30;;;8.70;58.90;;;;;;5032360;28;20538;-58
2022/12/04 06:23:55;;;;;;;19.30;13.10;;;8.70;58.90;;;;;;5039277;28;20486;-58
2022/12/04 06:26:21;;;;;;;18.77;12.43;;;8.60;59.10;;;;;;5031786;28;20436;-57
2022/12/04 06:28:47;;;;;;;17.80;12.97;;;8.60;59.00;;;;;;5040595;28;20434;-57
2022/12/04 06:31:15;;;;;;;18.10;12.90;;;8.60;58.90;;;;;;5045745;28;20449;-57
2022/12/04 06:33:41;;;;;;;22.13;13.80;;;8.50;59.10;;;;;;5035719;28;21001;-57
2022/12/04 06:36:10;;;;;;;26.50;13.03;;;8.50;59.20;;;;;;5042440;28;20446;-56
2022/12/04 06:38:36;;;;;;;18.77;12.40;;;8.50;59.00;;;;;;5035845;28;20478;-56
2022/12/04 06:41:06;;;;;;;18.50;13.20;;;8.50;59.00;;;;;;5032819;28;20438;-56
2022/12/04 06:43:32;;;;;;;21.70;12.80;;;8.60;59.10;;;;;;5042437;28;20196;-57
2022/12/04 06:46:03;;;;;;;17.83;12.00;;;8.70;59.20;;;;;;5035047;28;20454;-57
2022/12/04 06:48:28;;;;;;;34.40;11.93;;;8.80;59.90;;;;;;5031296;28;20201;-57
2022/12/04 06:50:58;;;;;;;16.77;11.50;;;8.90;60.90;;;;;;5038666;28;20435;-57
2022/12/04 06:53:26;;;;;;;23.40;13.33;;;9.00;62.40;;;;;;5037637;28;20231;-57
2022/12/04 06:55:52;;;;;;;23.60;14.73;;;9.30;62.40;;;;;;5043579;28;20499;-57
2022/12/04 06:58:17;;;;;;;18.27;12.43;;;9.50;59.90;;;;;;5046489;28;20455;-57
2022/12/04 07:00:43;;;;;;;18.00;12.23;;;9.70;58.70;;;;;;5048654;28;20658;-57
2022/12/04 07:03:08;;;;;;;18.63;12.80;;;9.80;58.70;;;;;;5043341;28;20196;-57
2022/12/04 07:05:34;;;;;;;15.37;10.90;;;9.90;59.60;;;;;;5044075;28;20277;-57
2022/12/04 07:07:59;;;;;;;15.30;10.13;;;10.00;57.30;;;;;;5048003;28;20201;-58
2022/12/04 07:10:25;;;;;;;16.23;11.53;;;10.10;57.10;;;;;;5040009;28;20265;-58
2022/12/04 07:12:50;;;;;;;15.23;10.60;;;10.30;57.20;;;;;;5049515;28;20224;-58
2022/12/04 07:15:16;;;;;;;17.97;12.40;;;10.40;56.60;;;;;;5049863;28;20223;-58
2022/12/04 07:17:42;;;;;;;16.77;12.70;;;10.50;56.10;;;;;;5050563;28;20227;-57
2022/12/04 07:20:08;;;;;;;20.03;13.50;;;10.60;55.50;;;;;;5041860;28;20562;-58
2022/12/04 07:22:33;;;;;;;18.03;12.33;;;10.60;55.60;;;;;;5044328;28;20237;-58
2022/12/04 07:24:59;;;;;;;18.17;11.77;;;10.70;55.60;;;;;;5051954;28;20491;-58
2022/12/04 07:27:24;;;;;;;18.80;13.90;;;10.80;55.20;;;;;;5039568;28;20205;-58
2022/12/04 07:29:51;;;;;;;15.80;11.40;;;10.90;54.70;;;;;;5037759;28;20276;-58
2022/12/04 07:32:17;;;;;;;17.77;12.33;;;10.90;54.30;;;;;;5047363;28;20193;-58
2022/12/04 07:34:42;;;;;;;17.53;11.80;;;10.90;53.90;;;;;;5040051;28;20447;-58
2022/12/04 07:37:08;;;;;;;24.07;14.00;;;10.90;53.90;;;;;;5040957;28;20286;-58
2022/12/04 07:39:34;;;;;;;20.77;13.77;;;10.80;53.80;;;;;;5043186;28;20559;-57
2022/12/04 07:41:59;;;;;;;17.37;13.00;;;10.80;53.80;;;;;;5047355;28;20233;-57
2022/12/04 07:44:25;;;;;;;17.50;13.30;;;10.60;53.40;;;;;;5043677;28;20232;-57
2022/12/04 07:46:50;;;;;;;24.13;13.40;;;10.40;53.50;;;;;;5051819;28;21170;-58
2022/12/04 07:49:16;;;;;;;16.47;13.00;;;10.30;53.80;;;;;;5045330;28;20679;-57
2022/12/04 07:51:41;;;;;;;21.73;14.50;;;10.20;54.20;;;;;;5046810;28;20193;-57
2022/12/04 07:54:08;;;;;;;18.27;12.80;;;10.10;54.50;;;;;;5044283;28;20220;-57
2022/12/04 07:56:33;;;;;;;18.27;12.20;;;10.00;54.80;;;;;;5058518;28;20227;-57
2022/12/04 07:58:59;;;;;;;18.27;12.03;;;9.90;55.80;;;;;;5040360;28;20918;-57
2022/12/04 08:01:25;;;;;;;18.80;13.07;;;9.70;56.50;;;;;;5043501;28;20279;-57
2022/12/04 08:03:53;;;;;;;21.63;12.63;;;9.60;56.20;;;;;;5049671;28;20487;-56
2022/12/04 08:06:21;;;;;;;19.50;11.83;;;9.50;56.40;;;;;;5049459;28;20192;-56
2022/12/04 08:08:48;;;;;;;17.70;11.70;;;9.40;56.60;;;;;;5051057;28;20442;-57
2022/12/04 08:11:21;;;;;;;23.07;11.93;;;9.40;56.70;;;;;;5047275;28;20451;-57
2022/12/04 08:13:46;;;;;;;17.60;12.40;;;9.30;57.00;;;;;;5048550;28;20453;-56
2022/12/04 08:16:13;;;;;;;17.67;12.37;;;9.40;57.10;;;;;;5047733;28;20794;-56
2022/12/04 08:18:40;;;;;;;19.03;12.90;;;9.40;57.00;;;;;;5040616;28;20191;-57
2022/12/04 08:21:08;;;;;;;16.60;12.90;;;9.40;57.20;;;;;;5042567;28;20922;-56
2022/12/04 08:23:35;;;;;;;19.20;13.10;;;9.40;57.50;;;;;;5050147;28;20475;-56
2022/12/04 08:26:01;;;;;;;16.87;12.33;;;9.30;57.60;;;;;;5045972;28;20504;-56
2022/12/04 08:28:27;;;;;;;19.93;13.77;;;9.30;57.90;;;;;;5049089;28;20479;-56
2022/12/04 08:30:53;;;;;;;17.10;11.60;;;9.30;57.90;;;;;;5049466;28;21350;-56
2022/12/04 08:33:19;;;;;;;19.30;13.40;;;9.40;57.80;;;;;;5044742;28;20453;-56
2022/12/04 08:35:45;;;;;;;20.40;13.13;;;9.40;57.70;;;;;;5040802;28;20654;-56
2022/12/04 08:38:10;;;;;;;20.10;13.00;;;9.30;57.80;;;;;;5048402;28;20477;-56
2022/12/04 08:40:36;;;;;;;17.43;11.90;;;9.20;58.00;;;;;;5048702;28;20184;-56
2022/12/04 08:43:01;;;;;;;21.00;12.30;;;9.10;58.30;;;;;;5048309;28;20210;-56
2022/12/04 08:45:27;;;;;;;22.97;13.80;;;9.10;58.40;;;;;;5045522;28;20224;-56
2022/12/04 08:47:52;;;;;;;18.27;11.90;;;9.30;58.20;;;;;;5042141;28;20644;-56
2022/12/04 08:50:18;;;;;;;15.93;11.43;;;9.20;58.00;;;;;;5051423;28;20269;-56
2022/12/04 08:52:44;;;;;;;23.63;14.10;;;9.00;58.30;;;;;;5050123;28;20180;-56
2022/12/04 08:55:09;;;;;;;18.07;11.93;;;8.90;59.00;;;;;;5039481;28;20199;-56
2022/12/04 08:57:35;;;;;;;18.63;12.70;;;8.80;59.50;;;;;;5046614;28;20605;-57
2022/12/04 09:00:00;;;;;;;18.63;12.47;;;8.90;59.50;;;;;;5050882;28;20200;-57
2022/12/04 09:02:26;;;;;;;16.47;12.03;;;9.00;59.10;;;;;;5047220;28;20725;-56
2022/12/04 09:04:52;;;;;;;20.17;12.80;;;9.10;58.70;;;;;;5048904;28;20224;-56
2022/12/04 09:07:17;;;;;;;19.60;11.83;;;9.00;58.70;;;;;;5051075;28;20724;-56
2022/12/04 09:09:43;;;;;;;16.77;11.87;;;9.00;59.10;;;;;;5051255;28;20254;-56
2022/12/04 09:12:08;;;;;;;16.47;11.73;;;9.00;58.90;;;;;;5049329;28;20953;-56
2022/12/04 09:14:34;;;;;;;16.90;12.03;;;9.10;58.90;;;;;;5051337;28;20201;-57
2022/12/04 09:17:00;;;;;;;17.80;13.20;;;9.20;58.70;;;;;;5049931;28;21014;-56
2022/12/04 09:19:25;;;;;;;19.60;12.20;;;9.30;58.30;;;;;;5051339;28;20192;-56
2022/12/04 09:21:51;;;;;;;20.07;12.40;;;9.10;58.40;;;;;;5050694;28;20629;-57
2022/12/04 09:24:17;;;;;;;18.03;12.07;;;9.20;58.40;;;;;;5050965;28;20656;-56
2022/12/04 09:26:42;;;;;;;18.97;13.40;;;9.10;58.50;;;;;;5048892;28;21203;-56
2022/12/04 09:29:10;;;;;;;21.70;12.93;;;9.10;58.70;;;;;;5051194;28;20242;-56
2022/12/04 09:31:36;;;;;;;18.53;11.73;;;9.10;58.80;;;;;;5051327;28;20197;-56
2022/12/04 09:34:02;;;;;;;20.87;13.00;;;9.00;59.10;;;;;;5049409;28;20439;-58
2022/12/04 09:36:28;;;;;;;16.13;11.87;;;9.00;59.10;;;;;;5049502;28;20303;-57
2022/12/04 09:38:54;;;;;;;20.53;14.27;;;9.10;59.00;;;;;;5049545;28;20424;-57
2022/12/04 09:41:32;;;;;;;22.30;13.77;;;9.20;58.80;;;;;;5050739;28;20419;-57
2022/12/04 09:44:31;;;;;;;28.27;15.83;;;9.20;58.50;;;;;;5050238;28;20629;-57
2022/12/04 09:47:10;;;;;;;20.73;14.30;;;9.20;58.50;;;;;;5049573;28;20781;-57
2022/12/04 09:49:43;;;;;;;17.77;10.50;;;9.30;58.50;;;;;;5051027;28;20427;-57
2022/12/04 09:52:24;;;;;;;15.30;10.67;;;9.20;58.70;;;;;;5050419;28;20858;-57
2022/12/04 09:54:51;;;;;;;18.17;11.00;;;9.10;58.80;;;;;;5050850;28;20430;-57
2022/12/04 09:57:24;;;;;;;16.37;10.20;;;9.20;58.90;;;;;;5049098;28;20428;-57
2022/12/04 09:59:51;;;;;;;13.93;10.07;;;9.30;58.90;;;;;;5050794;28;20497;-57
2022/12/04 10:02:33;;;;;;;20.37;12.37;;;9.30;58.70;;;;;;5050336;28;20484;-57
2022/12/04 10:04:59;;;;;;;22.60;13.67;;;9.40;58.70;;;;;;5050169;28;20540;-57
2022/12/04 10:08:11;;;;;;;27.67;16.23;;;9.50;58.70;;;;;;5052769;28;20431;-57
2022/12/04 10:10:45;;;;;;;19.40;11.57;;;9.50;58.60;;;;;;5047005;28;20223;-57
2022/12/04 10:13:43;;;;;;;20.67;12.00;;;9.50;58.40;;;;;;5040350;28;20458;-57
2022/12/04 10:16:12;;;;;;;16.00;11.10;;;9.30;58.60;;;;;;5047747;28;20821;-57
2022/12/04 10:18:56;;;;;;;19.43;11.30;;;9.40;58.60;;;;;;5045418;28;20431;-57
2022/12/04 10:21:28;;;;;;;15.03;10.90;;;9.50;58.60;;;;;;5049559;28;20450;-57
2022/12/04 10:24:17;;;;;;;14.20;11.33;;;9.50;58.30;;;;;;5050065;28;20490;-57
2022/12/04 10:26:46;;;;;;;15.13;11.13;;;9.60;58.40;;;;;;5050547;28;20795;-58
2022/12/04 10:29:22;;;;;;;14.70;10.60;;;9.60;58.20;;;;;;5047055;28;20440;-58
2022/12/04 10:31:50;;;;;;;18.10;10.80;;;9.60;58.00;;;;;;5048471;28;20492;-57
2022/12/04 10:34:25;;;;;;;16.90;11.37;;;9.50;58.00;;;;;;5049669;28;20432;-58
2022/12/04 10:37:00;;;;;;;15.43;10.90;;;9.50;58.00;;;;;;5049627;28;20438;-57
2022/12/04 10:39:36;;;;;;;18.07;11.80;;;9.50;58.10;;;;;;5045845;28;20431;-57
2022/12/04 10:42:25;;;;;;;19.20;10.70;;;9.50;58.10;;;;;;5050172;28;20441;-57
2022/12/04 10:44:52;;;;;;;16.60;10.97;;;9.50;58.10;;;;;;5050234;28;20884;-58
2022/12/04 10:47:18;;;;;;;14.63;9.67;;;9.50;58.30;;;;;;5051097;28;20764;-57
2022/12/04 10:49:43;;;;;;;17.00;10.83;;;9.50;58.20;;;;;;5053891;28;20434;-57
2022/12/04 10:52:12;;;;;;;16.17;10.50;;;9.40;58.10;;;;;;5052241;28;20439;-57
2022/12/04 10:54:48;;;;;;;14.43;10.40;;;9.40;58.20;;;;;;5053687;28;20200;-57
2022/12/04 10:57:14;;;;;;;17.07;10.90;;;9.50;58.20;;;;;;5053523;28;20449;-57
2022/12/04 10:59:55;;;;;;;18.13;12.10;;;9.50;58.20;;;;;;5052032;28;20419;-57
2022/12/04 11:02:26;;;;;;;16.60;10.60;;;9.50;58.30;;;;;;5051819;28;20504;-57
2022/12/04 11:05:06;;;;;;;16.47;9.77;;;9.50;58.00;;;;;;5053642;28;20482;-57
2022/12/04 11:07:36;;;;;;;13.70;10.67;;;9.50;58.10;;;;;;5053663;28;20479;-57
2022/12/04 11:10:16;;;;;;;15.57;10.67;;;9.50;58.10;;;;;;5053217;28;20434;-57
2022/12/04 11:12:53;;;;;;;18.20;11.23;;;9.50;58.20;;;;;;5051939;28;20823;-57
2022/12/04 11:15:19;;;;;;;20.40;11.33;;;9.60;58.40;;;;;;5053411;28;20428;-57
2022/12/04 11:17:45;;;;;;;16.40;11.67;;;9.60;58.40;;;;;;5053504;28;20504;-57
2022/12/04 11:20:25;;;;;;;16.53;10.70;;;9.60;58.40;;;;;;5053349;28;20338;-57
2022/12/04 11:22:52;;;;;;;16.20;10.80;;;9.70;58.50;;;;;;5044043;28;20326;-57
2022/12/04 11:25:20;;;;;;;17.13;10.80;;;9.70;58.50;;;;;;5052984;28;20577;-57
2022/12/04 11:27:49;;;;;;;15.80;11.50;;;9.70;58.20;;;;;;5051669;28;20489;-57
2022/12/04 11:30:24;;;;;;;19.90;11.80;;;9.60;58.10;;;;;;5053390;28;20506;-57
2022/12/04 11:32:51;;;;;;;19.73;11.17;;;9.60;58.10;;;;;;5051597;28;20443;-57
2022/12/04 11:35:23;;;;;;;18.33;11.73;;;9.60;57.60;;;;;;5053266;28;20439;-57
2022/12/04 11:38:12;;;;;;;18.03;11.73;;;9.70;58.00;;;;;;5052117;28;20438;-57
2022/12/04 11:40:38;;;;;;;14.77;10.40;;;9.70;58.00;;;;;;5051702;28;20441;-57
2022/12/04 11:43:11;;;;;;;17.50;11.87;;;9.80;58.20;;;;;;5050478;28;20861;-57
2022/12/04 11:45:37;;;;;;;17.53;11.60;;;9.80;58.20;;;;;;5050237;28;20846;-57
2022/12/04 11:48:17;;;;;;;16.93;11.60;;;9.80;58.20;;;;;;5049650;28;20461;-57
2022/12/04 11:51:05;;;;;;;18.27;11.90;;;9.70;57.50;;;;;;5045207;28;20448;-57
2022/12/04 11:53:40;;;;;;;17.57;12.37;;;9.50;58.00;;;;;;5043375;28;20443;-57
2022/12/04 11:56:24;;;;;;;18.50;12.00;;;9.60;58.20;;;;;;5052550;28;20462;-58
2022/12/04 11:58:56;;;;;;;20.03;11.83;;;9.60;58.30;;;;;;5047363;28;20455;-58
2022/12/04 12:01:38;;;;;;;19.10;12.30;;;9.70;58.20;;;;;;5052451;28;20416;-58
2022/12/04 12:04:22;;;;;;;19.80;12.80;;;9.80;58.20;;;;;;5051696;28;20847;-58
2022/12/04 12:07:02;;;;;;;20.67;11.73;;;9.80;58.20;;;;;;5044697;28;20422;-57
2022/12/04 12:10:00;;;;;;;17.23;11.83;;;9.80;58.40;;;;;;5052422;28;20473;-58
2022/12/04 12:13:04;;;;;;;18.53;11.03;;;9.90;59.00;;;;;;5051925;28;20439;-57
2022/12/04 12:16:10;;;;;;;19.77;11.73;;;9.90;58.40;;;;;;5026347;28;20450;-57
2022/12/04 12:19:14;;;;;;;20.13;11.87;;;9.90;58.40;;;;;;5041744;28;20443;-57
2022/12/04 12:22:15;;;;;;;18.03;12.27;;;9.90;58.30;;;;;;5050019;28;20446;-57
2022/12/04 12:25:02;;;;;;;22.03;13.13;;;10.00;57.40;;;;;;5051952;28;20485;-57
2022/12/04 12:27:34;;;;;;;22.33;12.80;;;10.00;57.40;;;;;;5050804;28;20449;-57
2022/12/04 12:30:08;;;;;;;20.23;12.40;;;10.00;57.20;;;;;;5051965;28;20525;-57
2022/12/04 12:33:11;;;;;;;19.23;12.57;;;10.00;57.10;;;;;;5051921;28;20426;-57
2022/12/04 12:36:04;;;;;;;20.63;12.27;;;10.10;57.10;;;;;;5040896;28;20518;-57
2022/12/04 12:38:39;;;;;;;15.50;10.90;;;10.10;57.20;;;;;;5050095;28;20443;-57
2022/12/04 12:41:11;;;;;;;17.53;11.40;;;10.00;57.10;;;;;;5051661;28;20880;-58
2022/12/04 12:43:38;;;;;;;16.30;11.60;;;10.00;57.20;;;;;;5051368;28;20424;-58
2022/12/04 12:46:32;;;;;;;19.60;12.40;;;10.00;57.10;;;;;;5051830;28;20447;-57
2022/12/04 12:49:11;;;;;;;21.37;13.10;;;10.00;57.20;;;;;;5047871;28;20451;-58
2022/12/04 12:51:49;;;;;;;17.10;11.53;;;10.00;57.30;;;;;;5048545;28;20787;-57
2022/12/04 12:54:26;;;;;;;16.27;10.60;;;9.90;58.50;;;;;;5048832;28;20443;-61
2022/12/04 12:56:59;;;;;;;17.63;11.30;;;9.90;58.50;;;;;;5041918;28;20472;-57
2022/12/04 12:59:26;;;;;;;23.80;15.80;;;9.90;58.20;;;;;;5043688;28;20435;-57
2022/12/04 13:02:02;;;;;;;21.93;13.10;;;9.80;58.50;;;;;;5047696;28;20443;-57
2022/12/04 13:04:40;;;;;;;21.10;12.97;;;9.90;58.50;;;;;;5046318;28;20548;-57
2022/12/04 13:07:24;;;;;;;23.10;14.37;;;9.90;58.50;;;;;;5049466;28;20447;-57